createdAt,value
2023-05-02T00:03:54.771Z,9.97
2023-05-02T00:14:07.922Z,9.86
2023-05-02T00:24:11.515Z,9.74
2023-05-02T00:34:15.585Z,9.60
2023-05-02T00:44:19.326Z,9.47
2023-05-02T00:54:23.025Z,9.37
2023-05-02T01:04:30.292Z,9.30
2023-05-02T01:14:36.433Z,9.25
2023-05-02T01:24:43.128Z,9.21
2023-05-02T01:34:50.316Z,9.15
2023-05-02T01:44:56.026Z,9.08
2023-05-02T01:55:00.631Z,9.09
2023-05-02T02:05:07.514Z,9.15
2023-05-02T02:15:10.745Z,9.16
2023-05-02T02:25:18.489Z,9.15
2023-05-02T02:35:23.155Z,9.10
2023-05-02T02:45:27.410Z,9.04
2023-05-02T02:55:31.459Z,9.04
2023-05-02T03:05:40.377Z,9.14
2023-05-02T03:16:07.200Z,9.32
2023-05-02T03:26:11.057Z,9.40
2023-05-02T03:36:15.092Z,9.49
2023-05-02T03:46:18.668Z,9.58
2023-05-02T03:56:22.761Z,9.65
2023-05-02T04:06:26.429Z,9.83
2023-05-02T04:16:30.151Z,10.15
2023-05-02T04:26:33.822Z,10.64
2023-05-02T04:36:38.118Z,11.18
2023-05-02T04:46:41.718Z,11.67
2023-05-02T04:56:45.450Z,12.03
2023-05-02T05:06:49.758Z,12.38
2023-05-02T05:16:53.723Z,12.88
2023-05-02T05:27:01.278Z,13.23
2023-05-02T05:37:14.286Z,13.67
2023-05-02T05:47:19.356Z,14.19
2023-05-02T05:57:23.357Z,14.77
2023-05-02T06:17:32.161Z,16.18
2023-05-02T06:27:36.518Z,16.82
2023-05-02T06:37:40.253Z,17.40
2023-05-02T06:47:43.971Z,18.02
2023-05-02T06:57:48.496Z,18.34
2023-05-02T07:07:52.524Z,17.94
2023-05-02T07:17:56.487Z,18.24
2023-05-02T07:28:00.312Z,18.41
2023-05-02T07:38:04.708Z,19.12
2023-05-02T07:58:11.653Z,20.18
2023-05-02T08:08:15.451Z,20.38
2023-05-02T08:18:19.159Z,20.54
2023-05-02T08:28:23.174Z,20.80
2023-05-02T08:38:27.737Z,21.22
2023-05-02T08:48:32.742Z,20.60
2023-05-02T08:58:36.204Z,20.14
2023-05-02T09:08:44.711Z,19.56
2023-05-02T09:18:49.529Z,19.32
2023-05-02T09:39:14.624Z,19.77
2023-05-02T09:49:19.645Z,19.63
2023-05-02T09:59:24.234Z,19.82
2023-05-02T10:09:35.787Z,20.41
2023-05-02T10:19:53.247Z,21.03
2023-05-02T10:30:01.701Z,21.06
2023-05-02T10:40:12.351Z,20.47
2023-05-02T10:50:43.198Z,20.08
2023-05-02T11:00:47.957Z,19.80
2023-05-02T11:10:51.509Z,19.47
2023-05-02T11:21:27.123Z,19.16
2023-05-02T11:42:00.707Z,19.01
2023-05-02T11:52:08.229Z,18.75
2023-05-02T12:02:12.264Z,18.50
2023-05-02T12:12:19.124Z,18.22
2023-05-02T12:22:26.924Z,18.19
2023-05-02T12:32:32.517Z,18.12
2023-05-02T12:42:36.510Z,17.87
2023-05-02T12:52:50.769Z,17.61
2023-05-02T13:02:54.662Z,17.59
2023-05-02T13:12:58.550Z,17.67
2023-05-02T13:23:06.222Z,17.90
2023-05-02T13:33:10.999Z,17.74
2023-05-02T13:43:14.821Z,17.54
2023-05-02T13:53:18.608Z,17.49
2023-05-02T14:03:22.822Z,17.48
2023-05-02T14:13:27.108Z,17.61
2023-05-02T14:23:30.889Z,17.67
2023-05-02T14:33:34.422Z,17.43
2023-05-02T14:43:39.359Z,17.23
2023-05-02T14:53:43.392Z,17.07
2023-05-02T15:04:03.349Z,16.86
2023-05-02T15:24:12.803Z,16.84
2023-05-02T15:34:20.200Z,16.87
2023-05-02T15:44:24.197Z,16.79
2023-05-02T15:54:28.736Z,16.68
2023-05-02T16:04:34.388Z,16.49
2023-05-02T16:14:38.391Z,16.30
2023-05-02T16:24:42.356Z,16.13
2023-05-02T16:34:45.968Z,16.09
2023-05-02T16:44:49.790Z,16.04
2023-05-02T16:54:57.320Z,16.03
2023-05-02T17:05:01.034Z,15.90
2023-05-02T17:15:05.880Z,15.74
2023-05-02T17:25:10.911Z,15.62
2023-05-02T17:45:21.703Z,15.31
2023-05-02T17:55:25.582Z,15.15
2023-05-02T18:05:29.216Z,14.66
2023-05-02T18:15:33.001Z,14.16
2023-05-02T18:25:40.339Z,13.78
2023-05-02T18:35:45.900Z,13.58
2023-05-02T18:45:49.607Z,13.46
2023-05-02T18:55:52.923Z,13.27
2023-05-02T19:06:20.287Z,13.16
2023-05-02T19:16:25.153Z,13.08
2023-05-02T19:26:32.481Z,13.17
2023-05-02T19:36:35.958Z,13.40
2023-05-02T19:46:39.580Z,13.29
2023-05-02T19:56:48.671Z,13.09
2023-05-02T20:06:51.709Z,13.05
2023-05-02T20:16:56.908Z,12.99
2023-05-02T20:27:00.794Z,12.80
2023-05-02T20:37:09.795Z,12.60
2023-05-02T20:47:17.430Z,12.43
2023-05-02T20:57:21.874Z,12.30
2023-05-02T21:07:25.411Z,12.49
2023-05-02T21:17:29.049Z,12.31
2023-05-02T21:27:32.895Z,12.09
2023-05-02T21:37:36.534Z,11.95
2023-05-02T21:47:40.472Z,11.88
2023-05-02T21:57:44.238Z,11.89
2023-05-02T22:07:47.810Z,11.77
2023-05-02T22:17:51.631Z,11.64
2023-05-02T22:27:55.599Z,11.48
2023-05-02T22:38:00.836Z,11.29
2023-05-02T22:48:06.709Z,11.22
2023-05-02T22:58:10.326Z,11.21
2023-05-02T23:08:14.535Z,11.26
2023-05-02T23:18:18.017Z,11.26
2023-05-02T23:28:25.551Z,11.39
2023-05-02T23:38:29.363Z,11.34
2023-05-02T23:48:33.129Z,11.28
2023-05-02T23:58:36.963Z,11.26
